sensor_id;sensor_type;location;lat;lon;timestamp;pressure;altitude;pressure_sealevel;temperature;humidity
7478;BME280;3780;42.424;25.636;2022-07-15T00:00:27;99056.94;;;21.31;42.46
7478;BME280;3780;42.424;25.636;2022-07-15T00:02:53;99106.19;;;21.57;42.28
7478;BME280;3780;42.424;25.636;2022-07-15T00:05:19;99112.28;;;21.62;42.93
7478;BME280;3780;42.424;25.636;2022-07-15T00:07:44;99111.81;;;21.60;43.05
7478;BME280;3780;42.424;25.636;2022-07-15T00:10:10;99125.50;;;21.69;42.72
7478;BME280;3780;42.424;25.636;2022-07-15T00:12:52;99125.03;;;21.67;43.38
7478;BME280;3780;42.424;25.636;2022-07-15T00:15:20;99058.56;;;21.23;43.27
7478;BME280;3780;42.424;25.636;2022-07-15T00:17:46;99039.72;;;21.13;43.24
7478;BME280;3780;42.424;25.636;2022-07-15T00:20:13;99097.69;;;21.49;43.23
7478;BME280;3780;42.424;25.636;2022-07-15T00:22:39;99112.16;;;21.59;43.55
7478;BME280;3780;42.424;25.636;2022-07-15T00:25:05;99062.09;;;21.23;42.97
7478;BME280;3780;42.424;25.636;2022-07-15T00:27:31;99075.00;;;21.23;43.34
7478;BME280;3780;42.424;25.636;2022-07-15T00:29:57;99070.53;;;21.27;43.47
7478;BME280;3780;42.424;25.636;2022-07-15T00:32:22;99092.09;;;21.37;43.75
7478;BME280;3780;42.424;25.636;2022-07-15T00:34:48;99068.63;;;21.10;43.53
7478;BME280;3780;42.424;25.636;2022-07-15T00:37:14;99105.34;;;21.35;43.69
7478;BME280;3780;42.424;25.636;2022-07-15T00:39:39;99037.63;;;20.80;44.14
7478;BME280;3780;42.424;25.636;2022-07-15T00:42:05;99111.19;;;21.25;44.09
7478;BME280;3780;42.424;25.636;2022-07-15T00:44:31;99102.66;;;21.18;44.37
7478;BME280;3780;42.424;25.636;2022-07-15T00:46:57;99100.88;;;21.13;44.52
7478;BME280;3780;42.424;25.636;2022-07-15T00:49:25;99019.34;;;20.55;44.16
7478;BME280;3780;42.424;25.636;2022-07-15T00:51:53;99090.91;;;21.09;44.47
7478;BME280;3780;42.424;25.636;2022-07-15T00:54:26;99081.56;;;21.01;44.93
7478;BME280;3780;42.424;25.636;2022-07-15T00:56:56;99044.41;;;20.74;44.40
7478;BME280;3780;42.424;25.636;2022-07-15T00:59:24;99094.97;;;20.94;44.57
7478;BME280;3780;42.424;25.636;2022-07-15T01:01:51;99047.78;;;20.80;44.72
7478;BME280;3780;42.424;25.636;2022-07-15T01:04:18;99050.19;;;20.81;44.60
7478;BME280;3780;42.424;25.636;2022-07-15T01:06:45;99063.22;;;20.93;44.63
7478;BME280;3780;42.424;25.636;2022-07-15T01:09:11;99060.16;;;20.94;44.29
7478;BME280;3780;42.424;25.636;2022-07-15T01:11:37;99020.75;;;20.70;44.51
7478;BME280;3780;42.424;25.636;2022-07-15T01:14:03;99004.16;;;20.66;44.84
7478;BME280;3780;42.424;25.636;2022-07-15T01:16:30;99042.75;;;20.90;44.87
7478;BME280;3780;42.424;25.636;2022-07-15T01:18:55;99045.50;;;20.90;44.40
7478;BME280;3780;42.424;25.636;2022-07-15T01:21:21;99063.00;;;21.07;44.73
7478;BME280;3780;42.424;25.636;2022-07-15T01:23:46;99069.13;;;21.04;44.65
7478;BME280;3780;42.424;25.636;2022-07-15T01:26:13;99060.09;;;21.03;44.65
7478;BME280;3780;42.424;25.636;2022-07-15T01:28:40;99065.13;;;21.01;44.94
7478;BME280;3780;42.424;25.636;2022-07-15T01:31:06;99047.06;;;21.00;44.55
7478;BME280;3780;42.424;25.636;2022-07-15T01:33:32;99044.88;;;20.85;44.77
7478;BME280;3780;42.424;25.636;2022-07-15T01:35:59;99054.00;;;20.98;44.85
7478;BME280;3780;42.424;25.636;2022-07-15T01:38:26;99043.88;;;20.89;45.38
7478;BME280;3780;42.424;25.636;2022-07-15T01:40:52;99056.13;;;20.92;45.03
7478;BME280;3780;42.424;25.636;2022-07-15T01:43:18;99051.63;;;20.87;45.55
7478;BME280;3780;42.424;25.636;2022-07-15T01:45:44;99017.34;;;20.64;45.76
7478;BME280;3780;42.424;25.636;2022-07-15T01:48:11;99042.16;;;20.76;45.76
7478;BME280;3780;42.424;25.636;2022-07-15T01:50:58;99026.56;;;20.68;45.86
7478;BME280;3780;42.424;25.636;2022-07-15T01:53:25;98950.78;;;20.08;46.06
7478;BME280;3780;42.424;25.636;2022-07-15T01:55:50;99014.03;;;20.50;45.56
7478;BME280;3780;42.424;25.636;2022-07-15T01:58:16;99038.00;;;20.61;45.93
7478;BME280;3780;42.424;25.636;2022-07-15T02:00:42;99042.84;;;20.64;45.92
7478;BME280;3780;42.424;25.636;2022-07-15T02:03:08;99013.72;;;20.43;46.00
7478;BME280;3780;42.424;25.636;2022-07-15T02:05:34;98971.38;;;20.14;46.14
7478;BME280;3780;42.424;25.636;2022-07-15T02:08:00;99045.63;;;20.56;46.07
7478;BME280;3780;42.424;25.636;2022-07-15T02:10:28;99049.97;;;20.57;46.20
7478;BME280;3780;42.424;25.636;2022-07-15T02:13:14;99054.47;;;20.53;46.44
7478;BME280;3780;42.424;25.636;2022-07-15T02:15:40;99034.34;;;20.40;46.56
7478;BME280;3780;42.424;25.636;2022-07-15T02:18:07;99047.91;;;20.45;46.74
7478;BME280;3780;42.424;25.636;2022-07-15T02:20:33;99031.28;;;20.33;46.91
7478;BME280;3780;42.424;25.636;2022-07-15T02:22:59;99049.00;;;20.44;46.78
7478;BME280;3780;42.424;25.636;2022-07-15T02:25:28;99043.69;;;20.39;46.50
7478;BME280;3780;42.424;25.636;2022-07-15T02:27:58;99054.31;;;20.41;46.84
7478;BME280;3780;42.424;25.636;2022-07-15T02:30:29;99007.97;;;20.18;46.72
7478;BME280;3780;42.424;25.636;2022-07-15T02:32:55;99013.28;;;20.15;46.41
7478;BME280;3780;42.424;25.636;2022-07-15T02:35:23;99051.09;;;20.38;46.57
7478;BME280;3780;42.424;25.636;2022-07-15T02:37:50;98997.50;;;20.03;46.81
7478;BME280;3780;42.424;25.636;2022-07-15T02:40:16;99058.66;;;20.33;46.66
7478;BME280;3780;42.424;25.636;2022-07-15T02:42:50;99050.78;;;20.31;47.06
7478;BME280;3780;42.424;25.636;2022-07-15T02:45:17;99042.09;;;20.21;46.60
7478;BME280;3780;42.424;25.636;2022-07-15T02:47:43;99014.56;;;20.08;46.92
7478;BME280;3780;42.424;25.636;2022-07-15T02:50:08;99055.78;;;20.29;46.97
7478;BME280;3780;42.424;25.636;2022-07-15T02:52:34;99063.84;;;20.34;46.75
7478;BME280;3780;42.424;25.636;2022-07-15T02:55:00;99025.19;;;20.10;46.96
7478;BME280;3780;42.424;25.636;2022-07-15T02:57:26;99039.03;;;20.22;46.91
7478;BME280;3780;42.424;25.636;2022-07-15T02:59:51;99064.66;;;20.35;46.69
7478;BME280;3780;42.424;25.636;2022-07-15T03:02:17;99018.44;;;20.07;46.64
7478;BME280;3780;42.424;25.636;2022-07-15T03:04:42;99056.59;;;20.30;46.77
7478;BME280;3780;42.424;25.636;2022-07-15T03:07:09;99036.00;;;20.15;46.66
7478;BME280;3780;42.424;25.636;2022-07-15T03:09:36;98984.16;;;19.84;47.14
7478;BME280;3780;42.424;25.636;2022-07-15T03:12:01;99051.91;;;20.30;47.19
7478;BME280;3780;42.424;25.636;2022-07-15T03:14:27;99020.69;;;20.14;47.11
7478;BME280;3780;42.424;25.636;2022-07-15T03:16:53;98997.03;;;20.01;46.90
7478;BME280;3780;42.424;25.636;2022-07-15T03:19:18;98984.66;;;19.95;47.23
7478;BME280;3780;42.424;25.636;2022-07-15T03:21:46;99061.28;;;20.47;47.03
7478;BME280;3780;42.424;25.636;2022-07-15T03:24:11;99056.28;;;20.49;46.79
7478;BME280;3780;42.424;25.636;2022-07-15T03:26:38;99042.88;;;20.38;47.40
7478;BME280;3780;42.424;25.636;2022-07-15T03:29:04;98993.63;;;20.13;47.44
7478;BME280;3780;42.424;25.636;2022-07-15T03:31:29;98998.28;;;20.12;46.95
7478;BME280;3780;42.424;25.636;2022-07-15T03:33:55;99055.44;;;20.57;47.55
7478;BME280;3780;42.424;25.636;2022-07-15T03:36:21;99041.75;;;20.48;46.71
7478;BME280;3780;42.424;25.636;2022-07-15T03:38:48;99016.16;;;20.35;46.71
7478;BME280;3780;42.424;25.636;2022-07-15T03:41:14;99024.97;;;20.41;46.63
7478;BME280;3780;42.424;25.636;2022-07-15T03:43:39;99001.47;;;20.31;46.92
7478;BME280;3780;42.424;25.636;2022-07-15T03:46:06;98979.44;;;20.19;46.71
7478;BME280;3780;42.424;25.636;2022-07-15T03:48:32;98997.94;;;20.31;46.29
7478;BME280;3780;42.424;25.636;2022-07-15T03:50:57;99035.13;;;20.58;45.95
7478;BME280;3780;42.424;25.636;2022-07-15T03:53:23;99048.28;;;20.73;46.53
7478;BME280;3780;42.424;25.636;2022-07-15T03:55:48;98996.44;;;20.42;46.09
7478;BME280;3780;42.424;25.636;2022-07-15T03:58:14;99069.84;;;20.92;46.18
7478;BME280;3780;42.424;25.636;2022-07-15T04:00:39;99050.66;;;20.83;45.86
7478;BME280;3780;42.424;25.636;2022-07-15T04:03:05;99038.09;;;20.82;46.76
7478;BME280;3780;42.424;25.636;2022-07-15T04:05:30;99015.25;;;20.70;46.03
7478;BME280;3780;42.424;25.636;2022-07-15T04:07:56;99040.19;;;20.85;46.02
7478;BME280;3780;42.424;25.636;2022-07-15T04:10:21;99072.94;;;21.20;46.00
7478;BME280;3780;42.424;25.636;2022-07-15T04:12:47;99075.00;;;21.23;46.00
7478;BME280;3780;42.424;25.636;2022-07-15T04:15:12;99040.88;;;21.12;45.83
7478;BME280;3780;42.424;25.636;2022-07-15T04:17:39;99072.09;;;21.37;46.35
7478;BME280;3780;42.424;25.636;2022-07-15T04:20:08;98984.28;;;20.78;45.54
7478;BME280;3780;42.424;25.636;2022-07-15T04:22:40;99024.88;;;21.14;45.43
7478;BME280;3780;42.424;25.636;2022-07-15T04:25:07;99055.75;;;21.40;45.31
7478;BME280;3780;42.424;25.636;2022-07-15T04:27:33;99077.41;;;21.63;45.59
7478;BME280;3780;42.424;25.636;2022-07-15T04:29:59;99047.94;;;21.51;45.07
7478;BME280;3780;42.424;25.636;2022-07-15T04:32:24;99076.06;;;21.69;45.49
7478;BME280;3780;42.424;25.636;2022-07-15T04:34:52;98997.59;;;21.26;44.91
7478;BME280;3780;42.424;25.636;2022-07-15T04:37:18;99072.72;;;21.84;44.47
7478;BME280;3780;42.424;25.636;2022-07-15T04:39:43;99038.91;;;21.71;44.66
7478;BME280;3780;42.424;25.636;2022-07-15T04:42:09;99046.41;;;21.83;44.60
7478;BME280;3780;42.424;25.636;2022-07-15T04:44:34;99072.47;;;21.98;44.46
7478;BME280;3780;42.424;25.636;2022-07-15T04:47:00;99067.56;;;22.03;44.69
7478;BME280;3780;42.424;25.636;2022-07-15T04:49:28;99050.47;;;22.06;44.67
7478;BME280;3780;42.424;25.636;2022-07-15T04:52:13;99078.88;;;22.44;44.06
7478;BME280;3780;42.424;25.636;2022-07-15T04:54:39;99029.41;;;22.11;44.43
7478;BME280;3780;42.424;25.636;2022-07-15T04:57:07;99017.53;;;22.19;44.17
7478;BME280;3780;42.424;25.636;2022-07-15T04:59:35;99076.75;;;22.74;45.77
7478;BME280;3780;42.424;25.636;2022-07-15T05:02:01;99020.91;;;22.36;44.30
7478;BME280;3780;42.424;25.636;2022-07-15T05:04:26;98968.44;;;22.17;43.44
7478;BME280;3780;42.424;25.636;2022-07-15T05:06:52;98992.03;;;22.30;43.75
7478;BME280;3780;42.424;25.636;2022-07-15T05:09:17;99078.16;;;22.80;43.37
7478;BME280;3780;42.424;25.636;2022-07-15T05:11:43;99069.31;;;22.74;44.11
7478;BME280;3780;42.424;25.636;2022-07-15T05:14:08;99009.16;;;22.48;44.11
7478;BME280;3780;42.424;25.636;2022-07-15T05:16:34;99040.09;;;22.70;43.89
7478;BME280;3780;42.424;25.636;2022-07-15T05:18:59;99033.72;;;22.78;44.20
7478;BME280;3780;42.424;25.636;2022-07-15T05:21:25;98962.41;;;22.36;44.02
7478;BME280;3780;42.424;25.636;2022-07-15T05:23:51;99061.75;;;23.16;43.45
7478;BME280;3780;42.424;25.636;2022-07-15T05:26:17;99095.78;;;23.48;43.62
7478;BME280;3780;42.424;25.636;2022-07-15T05:28:50;98993.75;;;22.92;42.57
7478;BME280;3780;42.424;25.636;2022-07-15T05:31:15;99048.41;;;23.43;42.72
7478;BME280;3780;42.424;25.636;2022-07-15T05:33:52;99089.00;;;23.70;42.93
7478;BME280;3780;42.424;25.636;2022-07-15T05:39:03;99079.78;;;23.91;42.09
7478;BME280;3780;42.424;25.636;2022-07-15T05:41:28;99037.84;;;23.69;41.79
7478;BME280;3780;42.424;25.636;2022-07-15T05:44:30;99086.41;;;24.02;40.43
7478;BME280;3780;42.424;25.636;2022-07-15T05:47:01;99016.69;;;23.73;41.12
7478;BME280;3780;42.424;25.636;2022-07-15T05:50:13;98960.53;;;23.50;40.69
7478;BME280;3780;42.424;25.636;2022-07-15T05:52:28;99082.03;;;24.41;41.29
7478;BME280;3780;42.424;25.636;2022-07-15T05:54:54;99075.06;;;24.59;40.19
7478;BME280;3780;42.424;25.636;2022-07-15T05:57:20;99082.09;;;24.73;39.62
7478;BME280;3780;42.424;25.636;2022-07-15T05:59:45;98988.34;;;24.29;38.82
7478;BME280;3780;42.424;25.636;2022-07-15T06:02:11;98987.16;;;24.42;37.57
7478;BME280;3780;42.424;25.636;2022-07-15T06:04:39;99022.69;;;24.75;37.46
7478;BME280;3780;42.424;25.636;2022-07-15T06:07:04;99007.72;;;24.60;38.09
7478;BME280;3780;42.424;25.636;2022-07-15T06:09:30;99069.63;;;25.07;37.77
7478;BME280;3780;42.424;25.636;2022-07-15T06:11:55;99025.34;;;24.87;38.12
7478;BME280;3780;42.424;25.636;2022-07-15T06:14:21;99063.38;;;25.26;38.56
7478;BME280;3780;42.424;25.636;2022-07-15T06:16:47;99015.34;;;25.30;39.32
7478;BME280;3780;42.424;25.636;2022-07-15T06:19:12;99035.50;;;25.66;37.56
7478;BME280;3780;42.424;25.636;2022-07-15T06:21:38;99009.34;;;25.79;36.61
7478;BME280;3780;42.424;25.636;2022-07-15T06:24:03;99076.00;;;26.51;37.76
7478;BME280;3780;42.424;25.636;2022-07-15T06:26:29;99053.81;;;26.48;35.42
7478;BME280;3780;42.424;25.636;2022-07-15T06:28:55;98980.81;;;26.14;35.07
7478;BME280;3780;42.424;25.636;2022-07-15T06:31:20;99009.41;;;26.41;35.14
7478;BME280;3780;42.424;25.636;2022-07-15T06:33:46;99017.06;;;26.70;36.28
7478;BME280;3780;42.424;25.636;2022-07-15T06:36:11;99057.34;;;27.13;36.00
7478;BME280;3780;42.424;25.636;2022-07-15T06:38:37;98990.09;;;26.90;34.29
7478;BME280;3780;42.424;25.636;2022-07-15T06:41:02;99047.59;;;27.23;33.45
7478;BME280;3780;42.424;25.636;2022-07-15T06:43:31;99061.34;;;27.42;33.53
7478;BME280;3780;42.424;25.636;2022-07-15T06:45:56;99004.63;;;27.06;33.80
7478;BME280;3780;42.424;25.636;2022-07-15T06:48:22;99053.41;;;27.41;33.58
7478;BME280;3780;42.424;25.636;2022-07-15T06:50:47;99042.97;;;27.31;33.46
7478;BME280;3780;42.424;25.636;2022-07-15T06:53:13;99009.22;;;27.21;33.05
7478;BME280;3780;42.424;25.636;2022-07-15T06:55:38;98998.56;;;27.24;33.11
7478;BME280;3780;42.424;25.636;2022-07-15T06:58:05;99059.28;;;27.89;34.10
7478;BME280;3780;42.424;25.636;2022-07-15T07:00:30;98994.81;;;27.65;32.73
7478;BME280;3780;42.424;25.636;2022-07-15T07:02:56;99018.44;;;27.86;32.55
7478;BME280;3780;42.424;25.636;2022-07-15T07:05:21;99019.53;;;28.11;31.61
7478;BME280;3780;42.424;25.636;2022-07-15T07:07:47;98995.53;;;28.26;32.16
7478;BME280;3780;42.424;25.636;2022-07-15T07:10:15;99043.59;;;28.74;32.01
7478;BME280;3780;42.424;25.636;2022-07-15T07:12:40;99003.53;;;28.68;32.07
7478;BME280;3780;42.424;25.636;2022-07-15T07:15:06;99021.25;;;28.97;31.75
7478;BME280;3780;42.424;25.636;2022-07-15T07:17:32;99042.31;;;29.02;31.57
7478;BME280;3780;42.424;25.636;2022-07-15T07:19:58;98990.06;;;28.74;31.58
7478;BME280;3780;42.424;25.636;2022-07-15T07:22:24;98969.94;;;28.84;31.54
7478;BME280;3780;42.424;25.636;2022-07-15T07:24:49;99046.25;;;29.48;30.42
7478;BME280;3780;42.424;25.636;2022-07-15T07:27:16;98987.69;;;29.20;32.18
7478;BME280;3780;42.424;25.636;2022-07-15T07:29:42;99000.22;;;29.51;31.23
7478;BME280;3780;42.424;25.636;2022-07-15T07:32:08;99010.63;;;29.75;31.24
7478;BME280;3780;42.424;25.636;2022-07-15T07:34:33;99014.34;;;30.01;30.83
7478;BME280;3780;42.424;25.636;2022-07-15T07:37:01;99017.25;;;30.29;30.40
7478;BME280;3780;42.424;25.636;2022-07-15T07:39:27;99018.41;;;30.25;29.09
7478;BME280;3780;42.424;25.636;2022-07-15T07:41:52;99024.78;;;30.36;28.98
7478;BME280;3780;42.424;25.636;2022-07-15T07:44:19;99008.50;;;30.34;29.37
7478;BME280;3780;42.424;25.636;2022-07-15T07:46:46;98991.81;;;30.38;29.86
7478;BME280;3780;42.424;25.636;2022-07-15T07:49:12;99018.88;;;30.48;28.57
7478;BME280;3780;42.424;25.636;2022-07-15T07:51:39;99042.34;;;30.47;30.17
7478;BME280;3780;42.424;25.636;2022-07-15T07:54:06;99048.38;;;30.67;29.85
7478;BME280;3780;42.424;25.636;2022-07-15T07:56:32;99024.03;;;30.39;28.99
7478;BME280;3780;42.424;25.636;2022-07-15T07:58:57;98981.34;;;29.99;28.96
7478;BME280;3780;42.424;25.636;2022-07-15T08:01:23;99008.88;;;30.26;29.08
7478;BME280;3780;42.424;25.636;2022-07-15T08:03:48;99052.28;;;30.62;28.38
7478;BME280;3780;42.424;25.636;2022-07-15T08:06:15;98981.88;;;30.44;28.24
7478;BME280;3780;42.424;25.636;2022-07-15T08:08:41;99026.09;;;30.78;27.49
7478;BME280;3780;42.424;25.636;2022-07-15T08:11:07;99016.56;;;30.89;28.01
7478;BME280;3780;42.424;25.636;2022-07-15T08:13:32;99032.06;;;31.15;27.67
7478;BME280;3780;42.424;25.636;2022-07-15T08:15:58;99020.53;;;31.31;28.89
7478;BME280;3780;42.424;25.636;2022-07-15T08:18:24;99018.50;;;31.53;25.79
7478;BME280;3780;42.424;25.636;2022-07-15T08:20:49;99020.81;;;31.83;27.70
7478;BME280;3780;42.424;25.636;2022-07-15T08:23:16;99031.16;;;31.90;26.14
7478;BME280;3780;42.424;25.636;2022-07-15T08:25:47;99009.22;;;31.92;26.84
7478;BME280;3780;42.424;25.636;2022-07-15T08:28:13;98963.06;;;31.80;25.44
7478;BME280;3780;42.424;25.636;2022-07-15T08:30:39;99012.31;;;32.15;25.86
7478;BME280;3780;42.424;25.636;2022-07-15T08:33:04;98977.72;;;31.95;24.81
7478;BME280;3780;42.424;25.636;2022-07-15T08:35:30;99023.63;;;31.80;25.69
7478;BME280;3780;42.424;25.636;2022-07-15T08:37:56;98993.88;;;31.27;25.82
7478;BME280;3780;42.424;25.636;2022-07-15T08:40:22;99019.34;;;31.29;26.11
7478;BME280;3780;42.424;25.636;2022-07-15T08:42:49;99011.72;;;31.54;26.61
7478;BME280;3780;42.424;25.636;2022-07-15T08:45:16;98953.59;;;31.49;27.04
7478;BME280;3780;42.424;25.636;2022-07-15T08:47:44;98995.63;;;32.08;25.42
7478;BME280;3780;42.424;25.636;2022-07-15T08:50:14;98990.81;;;32.12;25.20
7478;BME280;3780;42.424;25.636;2022-07-15T08:52:41;99009.81;;;32.39;23.76
7478;BME280;3780;42.424;25.636;2022-07-15T08:55:07;98958.06;;;32.16;24.07
7478;BME280;3780;42.424;25.636;2022-07-15T08:57:34;99003.13;;;32.18;24.41
7478;BME280;3780;42.424;25.636;2022-07-15T09:00:00;99017.41;;;32.35;24.96
7478;BME280;3780;42.424;25.636;2022-07-15T09:02:26;98953.34;;;32.10;25.41
7478;BME280;3780;42.424;25.636;2022-07-15T09:08:11;98967.19;;;32.31;23.43
7478;BME280;3780;42.424;25.636;2022-07-15T09:10:47;98995.63;;;32.71;24.52
7478;BME280;3780;42.424;25.636;2022-07-15T09:13:37;99002.13;;;33.09;23.49
7478;BME280;3780;42.424;25.636;2022-07-15T09:16:08;98963.91;;;32.99;23.46
7478;BME280;3780;42.424;25.636;2022-07-15T09:18:41;98985.56;;;33.29;23.35
7478;BME280;3780;42.424;25.636;2022-07-15T09:21:26;98974.59;;;33.49;22.71
7478;BME280;3780;42.424;25.636;2022-07-15T09:23:53;98978.53;;;33.85;23.01
7478;BME280;3780;42.424;25.636;2022-07-15T09:26:27;98994.03;;;34.24;22.93
7478;BME280;3780;42.424;25.636;2022-07-15T09:28:54;98962.69;;;34.06;20.70
7478;BME280;3780;42.424;25.636;2022-07-15T09:31:46;98987.50;;;34.34;22.60
7478;BME280;3780;42.424;25.636;2022-07-15T09:35:05;98991.50;;;34.87;20.13
7478;BME280;3780;42.424;25.636;2022-07-15T09:38:00;98982.09;;;35.01;19.85
7478;BME280;3780;42.424;25.636;2022-07-15T09:40:25;98984.38;;;35.06;20.83
7478;BME280;3780;42.424;25.636;2022-07-15T09:43:02;98969.69;;;35.22;21.16
7478;BME280;3780;42.424;25.636;2022-07-15T09:45:30;98974.59;;;35.37;21.11
7478;BME280;3780;42.424;25.636;2022-07-15T09:48:13;98965.44;;;35.57;20.26
7478;BME280;3780;42.424;25.636;2022-07-15T09:50:39;98936.22;;;34.41;21.18
7478;BME280;3780;42.424;25.636;2022-07-15T09:53:12;98946.84;;;34.53;20.80
7478;BME280;3780;42.424;25.636;2022-07-15T09:55:39;98961.41;;;34.68;21.37
7478;BME280;3780;42.424;25.636;2022-07-15T09:58:06;98944.63;;;34.91;20.81
7478;BME280;3780;42.424;25.636;2022-07-15T10:00:34;98944.97;;;35.36;21.63
7478;BME280;3780;42.424;25.636;2022-07-15T10:03:01;98956.16;;;35.60;20.96
7478;BME280;3780;42.424;25.636;2022-07-15T10:05:27;98908.47;;;35.40;20.21
7478;BME280;3780;42.424;25.636;2022-07-15T10:07:53;98953.63;;;35.65;20.00
7478;BME280;3780;42.424;25.636;2022-07-15T10:10:22;98938.34;;;35.27;19.82
7478;BME280;3780;42.424;25.636;2022-07-15T10:15:54;98939.00;;;35.34;20.08
7478;BME280;3780;42.424;25.636;2022-07-15T10:22:01;98932.94;;;35.59;20.13
7478;BME280;3780;42.424;25.636;2022-07-15T10:31:12;98935.59;;;35.03;21.13
7478;BME280;3780;42.424;25.636;2022-07-15T10:33:34;98890.09;;;34.72;20.93
7478;BME280;3780;42.424;25.636;2022-07-15T10:36:04;98872.97;;;34.43;20.69
7478;BME280;3780;42.424;25.636;2022-07-15T10:38:38;98914.25;;;34.39;21.91
7478;BME280;3780;42.424;25.636;2022-07-15T10:41:13;98909.88;;;34.38;21.46
7478;BME280;3780;42.424;25.636;2022-07-15T10:43:51;98892.22;;;34.41;21.29
7478;BME280;3780;42.424;25.636;2022-07-15T10:54:05;98890.81;;;34.53;22.20
7478;BME280;3780;42.424;25.636;2022-07-15T10:56:40;98893.41;;;34.87;22.06
7478;BME280;3780;42.424;25.636;2022-07-15T11:01:32;98887.72;;;34.71;20.48
7478;BME280;3780;42.424;25.636;2022-07-15T11:09:53;98884.84;;;33.70;22.09
7478;BME280;3780;42.424;25.636;2022-07-15T11:12:24;98881.41;;;33.55;22.61
7478;BME280;3780;42.424;25.636;2022-07-15T11:15:16;98883.13;;;33.11;22.16
7478;BME280;3780;42.424;25.636;2022-07-15T11:17:44;98855.91;;;33.15;22.79
7478;BME280;3780;42.424;25.636;2022-07-15T11:20:34;98872.47;;;33.98;22.62
7478;BME280;3780;42.424;25.636;2022-07-15T11:23:01;98866.81;;;34.52;22.18
7478;BME280;3780;42.424;25.636;2022-07-15T11:25:31;98868.66;;;35.05;22.11
7478;BME280;3780;42.424;25.636;2022-07-15T11:28:10;98876.97;;;35.52;20.79
7478;BME280;3780;42.424;25.636;2022-07-15T11:30:47;98861.75;;;35.89;19.75
7478;BME280;3780;42.424;25.636;2022-07-15T11:33:18;98881.53;;;36.35;20.55
7478;BME280;3780;42.424;25.636;2022-07-15T11:35:52;98875.03;;;36.38;20.19
7478;BME280;3780;42.424;25.636;2022-07-15T11:38:26;98870.38;;;35.98;20.03
7478;BME280;3780;42.424;25.636;2022-07-15T11:40:58;98875.06;;;35.65;20.48
7478;BME280;3780;42.424;25.636;2022-07-15T11:44:06;98867.31;;;34.47;20.93
7478;BME280;3780;42.424;25.636;2022-07-15T11:46:50;98792.78;;;33.79;22.21
7478;BME280;3780;42.424;25.636;2022-07-15T11:51:57;98833.75;;;34.20;22.71
7478;BME280;3780;42.424;25.636;2022-07-15T11:54:22;98841.16;;;34.77;22.80
7478;BME280;3780;42.424;25.636;2022-07-15T11:57:00;98854.63;;;35.49;21.91
7478;BME280;3780;42.424;25.636;2022-07-15T11:59:26;98835.59;;;35.56;19.92
7478;BME280;3780;42.424;25.636;2022-07-15T12:02:12;98865.19;;;35.77;19.83
7478;BME280;3780;42.424;25.636;2022-07-15T12:04:39;98850.28;;;35.04;19.91
7478;BME280;3780;42.424;25.636;2022-07-15T12:07:06;98812.41;;;34.53;20.41
7478;BME280;3780;42.424;25.636;2022-07-15T12:09:48;98823.53;;;34.56;21.66
7478;BME280;3780;42.424;25.636;2022-07-15T12:12:15;98837.63;;;34.73;21.43
7478;BME280;3780;42.424;25.636;2022-07-15T12:14:40;98816.53;;;34.68;21.21
7478;BME280;3780;42.424;25.636;2022-07-15T12:17:07;98829.59;;;34.75;20.55
7478;BME280;3780;42.424;25.636;2022-07-15T12:19:34;98813.97;;;34.54;20.88
7478;BME280;3780;42.424;25.636;2022-07-15T12:22:08;98846.69;;;34.34;20.15
7478;BME280;3780;42.424;25.636;2022-07-15T12:24:43;98838.06;;;34.24;21.48
7478;BME280;3780;42.424;25.636;2022-07-15T12:27:11;98805.78;;;34.16;23.02
7478;BME280;3780;42.424;25.636;2022-07-15T12:29:37;98840.75;;;34.55;21.16
7478;BME280;3780;42.424;25.636;2022-07-15T12:32:06;98845.28;;;34.49;21.29
7478;BME280;3780;42.424;25.636;2022-07-15T12:37:24;98835.41;;;33.87;20.84
7478;BME280;3780;42.424;25.636;2022-07-15T12:39:57;98808.31;;;33.23;21.39
7478;BME280;3780;42.424;25.636;2022-07-15T12:42:24;98835.44;;;33.60;23.18
7478;BME280;3780;42.424;25.636;2022-07-15T12:45:17;98827.25;;;33.72;22.92
7478;BME280;3780;42.424;25.636;2022-07-15T12:53:12;98837.59;;;33.76;23.16
7478;BME280;3780;42.424;25.636;2022-07-15T12:55:43;98759.13;;;33.29;22.70
7478;BME280;3780;42.424;25.636;2022-07-15T12:58:13;98822.94;;;33.95;22.75
7478;BME280;3780;42.424;25.636;2022-07-15T13:00:41;98829.13;;;34.10;22.21
7478;BME280;3780;42.424;25.636;2022-07-15T13:03:10;98787.75;;;33.97;21.80
7478;BME280;3780;42.424;25.636;2022-07-15T13:05:37;98835.94;;;34.32;21.18
7478;BME280;3780;42.424;25.636;2022-07-15T13:08:22;98786.44;;;34.02;21.24
7478;BME280;3780;42.424;25.636;2022-07-15T13:10:55;98800.88;;;34.00;20.91
7478;BME280;3780;42.424;25.636;2022-07-15T13:13:23;98813.91;;;34.11;21.08
7478;BME280;3780;42.424;25.636;2022-07-15T13:15:49;98829.53;;;34.08;20.66
7478;BME280;3780;42.424;25.636;2022-07-15T13:18:16;98818.13;;;33.95;21.21
7478;BME280;3780;42.424;25.636;2022-07-15T13:20:42;98830.88;;;34.00;21.46
7478;BME280;3780;42.424;25.636;2022-07-15T13:23:08;98814.53;;;33.68;21.28
7478;BME280;3780;42.424;25.636;2022-07-15T13:25:34;98822.34;;;33.80;20.87
7478;BME280;3780;42.424;25.636;2022-07-15T13:28:04;98817.56;;;33.77;21.16
7478;BME280;3780;42.424;25.636;2022-07-15T13:30:30;98811.97;;;33.77;21.46
7478;BME280;3780;42.424;25.636;2022-07-15T13:32:56;98811.31;;;33.69;22.91
7478;BME280;3780;42.424;25.636;2022-07-15T13:35:22;98779.41;;;33.36;21.66
7478;BME280;3780;42.424;25.636;2022-07-15T13:37:47;98801.22;;;33.49;22.57
7478;BME280;3780;42.424;25.636;2022-07-15T13:40:13;98803.63;;;33.47;22.71
7478;BME280;3780;42.424;25.636;2022-07-15T13:42:40;98799.88;;;33.26;23.00
7478;BME280;3780;42.424;25.636;2022-07-15T13:45:07;98774.50;;;33.13;22.33
7478;BME280;3780;42.424;25.636;2022-07-15T13:47:34;98807.81;;;33.31;23.23
7478;BME280;3780;42.424;25.636;2022-07-15T13:49:59;98824.66;;;33.24;21.83
7478;BME280;3780;42.424;25.636;2022-07-15T13:52:45;98824.38;;;33.15;21.95
7478;BME280;3780;42.424;25.636;2022-07-15T13:55:12;98827.69;;;33.06;23.16
7478;BME280;3780;42.424;25.636;2022-07-15T13:57:39;98828.09;;;33.05;22.54
7478;BME280;3780;42.424;25.636;2022-07-15T14:00:07;98784.59;;;32.70;22.39
7478;BME280;3780;42.424;25.636;2022-07-15T14:02:34;98815.31;;;32.70;24.00